createdAt,value
2019-04-05T00:00:16.310Z,99517.61
2019-04-05T00:02:45.802Z,99527.30
2019-04-05T00:05:15.612Z,99522.45
2019-04-05T00:07:45.188Z,99514.55
2019-04-05T00:10:15.297Z,99508.83
2019-04-05T00:12:44.735Z,99500.89
2019-04-05T00:15:15.890Z,99505.31
2019-04-05T00:17:45.509Z,99493.86
2019-04-05T00:20:15.916Z,99494.31
2019-04-05T00:22:45.348Z,99489.91
2019-04-05T00:25:14.802Z,99490.77
2019-04-05T00:27:44.229Z,99503.95
2019-04-05T00:30:13.845Z,99505.27
2019-04-05T00:32:43.269Z,99500.45
2019-04-05T00:35:12.741Z,99498.67
2019-04-05T00:37:42.173Z,99508.36
2019-04-05T00:40:12.291Z,99510.14
2019-04-05T00:42:41.746Z,99511.00
2019-04-05T00:45:11.649Z,99509.69
2019-04-05T00:47:41.109Z,99503.53
2019-04-05T00:50:11.678Z,99502.20
2019-04-05T00:52:41.288Z,99500.45
2019-04-05T00:55:10.897Z,99505.72
2019-04-05T00:57:40.402Z,99514.08
2019-04-05T01:00:10.619Z,99507.05
2019-04-05T01:02:40.122Z,99507.93
2019-04-05T01:05:10.344Z,99507.94
2019-04-05T01:07:39.912Z,99514.95
2019-04-05T01:10:10.198Z,99511.02
2019-04-05T01:12:40.794Z,99508.81
2019-04-05T01:15:12.183Z,99508.81
2019-04-05T01:17:42.223Z,99504.39
2019-04-05T01:20:12.411Z,99489.47
2019-04-05T01:22:43.826Z,99486.36
2019-04-05T01:25:14.597Z,99480.64
2019-04-05T01:27:48.211Z,99488.11
2019-04-05T01:30:17.101Z,99493.37
2019-04-05T01:32:47.366Z,99496.45
2019-04-05T01:35:16.901Z,99509.20
2019-04-05T01:37:47.040Z,99513.16
2019-04-05T01:40:16.737Z,99516.24
2019-04-05T01:42:46.935Z,99508.78
2019-04-05T01:45:16.461Z,99503.08
2019-04-05T01:47:46.006Z,99520.22
2019-04-05T01:50:16.407Z,99517.12
2019-04-05T01:52:46.373Z,99517.55
2019-04-05T01:55:16.216Z,99527.25
2019-04-05T01:57:45.651Z,99534.72
2019-04-05T02:00:16.561Z,99539.56
2019-04-05T02:02:46.369Z,99542.23
2019-04-05T02:05:15.949Z,99544.44
2019-04-05T02:07:45.514Z,99542.23
2019-04-05T02:10:15.357Z,99551.88
2019-04-05T02:12:44.859Z,99545.31
2019-04-05T02:15:28.854Z,99557.19
2019-04-05T02:17:58.621Z,99558.94
2019-04-05T02:20:28.319Z,99551.92
2019-04-05T02:22:57.926Z,99557.19
2019-04-05T02:25:27.523Z,99561.60
2019-04-05T02:27:57.090Z,99571.26
2019-04-05T02:30:27.384Z,99558.06
2019-04-05T02:32:57.896Z,99573.47
2019-04-05T02:35:27.514Z,99578.74
2019-04-05T02:37:57.099Z,99575.22
2019-04-05T02:40:28.580Z,99578.31
2019-04-05T02:42:59.975Z,99589.30
2019-04-05T02:45:32.488Z,99586.23
2019-04-05T02:48:05.469Z,99582.27
2019-04-05T02:50:38.326Z,99578.31
2019-04-05T02:53:10.348Z,99581.84
2019-04-05T02:55:42.530Z,99581.37
2019-04-05T02:58:14.179Z,99572.59
2019-04-05T03:00:45.027Z,99578.31
2019-04-05T03:03:16.406Z,99580.06
2019-04-05T03:05:46.908Z,99578.73
2019-04-05T03:08:17.297Z,99576.52
2019-04-05T03:10:58.568Z,99582.69
2019-04-05T03:13:30.436Z,99585.73
2019-04-05T03:16:02.738Z,99576.47
2019-04-05T03:18:34.631Z,99579.11
2019-04-05T03:21:07.538Z,99565.92
2019-04-05T03:23:40.368Z,99574.72
2019-04-05T03:26:12.830Z,99568.13
2019-04-05T03:28:44.138Z,99570.34
2019-04-05T03:31:14.046Z,99573.84
2019-04-05T03:33:43.832Z,99566.36
2019-04-05T03:36:13.700Z,99562.41
2019-04-05T03:38:43.166Z,99569.85
2019-04-05T03:41:12.943Z,99572.03
2019-04-05T03:43:42.662Z,99575.52
2019-04-05T03:46:12.566Z,99581.69
2019-04-05T03:48:42.563Z,99583.89
2019-04-05T03:51:12.381Z,99579.94
2019-04-05T03:53:42.009Z,99585.21
2019-04-05T03:56:11.801Z,99585.21
2019-04-05T03:58:41.428Z,99590.92
2019-04-05T04:01:11.004Z,99584.29
2019-04-05T04:03:40.593Z,99589.56
2019-04-05T04:06:10.488Z,99589.52
2019-04-05T04:08:40.373Z,99585.99
2019-04-05T04:11:10.630Z,99591.27
2019-04-05T04:13:40.216Z,99584.28
2019-04-05T04:16:09.968Z,99590.45
2019-04-05T04:18:39.878Z,99595.26
2019-04-05T04:21:28.874Z,99593.90
2019-04-05T04:23:58.926Z,99600.06
2019-04-05T04:26:29.085Z,99597.86
2019-04-05T04:28:58.545Z,99601.80
2019-04-05T04:31:29.383Z,99602.66
2019-04-05T04:33:59.610Z,99607.08
2019-04-05T04:36:29.555Z,99604.02
2019-04-05T04:38:59.121Z,99609.71
2019-04-05T04:41:31.886Z,99617.62
2019-04-05T04:44:00.686Z,99621.53
2019-04-05T04:46:30.620Z,99629.48
2019-04-05T04:49:00.263Z,99633.00
2019-04-05T04:51:30.460Z,99634.77
2019-04-05T04:54:00.260Z,99644.03
2019-04-05T04:56:30.327Z,99647.14
2019-04-05T04:59:00.536Z,99649.36
2019-04-05T05:01:30.247Z,99659.05
2019-04-05T05:04:00.172Z,99651.99
2019-04-05T05:06:29.861Z,99653.77
2019-04-05T05:09:00.064Z,99657.27
2019-04-05T05:11:29.993Z,99664.75
2019-04-05T05:13:59.585Z,99667.38
2019-04-05T05:16:29.586Z,99667.81
2019-04-05T05:18:59.485Z,99673.55
2019-04-05T05:21:29.155Z,99679.25
2019-04-05T05:23:58.987Z,99680.14
2019-04-05T05:26:28.634Z,99671.39
2019-04-05T05:28:58.650Z,99676.70
2019-04-05T05:31:32.493Z,99682.88
2019-04-05T05:34:02.158Z,99677.64
2019-04-05T05:36:39.546Z,99673.25
2019-04-05T05:39:10.639Z,99674.61
2019-04-05T05:41:40.185Z,99676.39
2019-04-05T05:44:09.646Z,99684.70
2019-04-05T05:46:41.266Z,99685.98
2019-04-05T05:49:10.457Z,99691.26
2019-04-05T05:51:41.456Z,99686.44
2019-04-05T05:54:11.010Z,99686.91
2019-04-05T05:56:40.620Z,99689.98
2019-04-05T05:59:10.060Z,99682.95
2019-04-05T06:01:39.831Z,99680.31
2019-04-05T06:04:09.301Z,99690.44
2019-04-05T06:06:38.764Z,99692.66
2019-04-05T06:09:10.529Z,99688.66
2019-04-05T06:11:40.074Z,99687.38
2019-04-05T06:14:09.559Z,99689.13
2019-04-05T06:16:46.269Z,99694.44
2019-04-05T06:19:15.927Z,99699.71
2019-04-05T06:21:47.074Z,99693.08
2019-04-05T06:24:19.152Z,99693.55
2019-04-05T06:26:48.773Z,99686.95
2019-04-05T06:29:18.299Z,99685.16
2019-04-05T06:31:47.732Z,99691.77
2019-04-05T06:34:17.307Z,99690.41
2019-04-05T06:36:46.725Z,99693.08
2019-04-05T06:39:17.160Z,99693.97
2019-04-05T06:41:46.686Z,99693.08
2019-04-05T06:44:16.540Z,99690.91
2019-04-05T06:46:45.966Z,99698.78
2019-04-05T06:49:15.399Z,99708.45
2019-04-05T06:51:44.963Z,99705.38
2019-04-05T06:54:14.422Z,99715.55
2019-04-05T06:56:43.846Z,99715.58
2019-04-05T06:59:13.300Z,99710.79
2019-04-05T07:01:42.971Z,99715.67
2019-04-05T07:04:12.435Z,99710.38
2019-04-05T07:06:42.069Z,99712.16
2019-04-05T07:09:11.515Z,99713.05
2019-04-05T07:11:40.932Z,99720.07
2019-04-05T07:14:10.563Z,99725.36
2019-04-05T07:16:40.236Z,99722.27
2019-04-05T07:19:09.973Z,99725.30
2019-04-05T07:21:39.503Z,99726.20
2019-04-05T07:24:09.046Z,99738.97
2019-04-05T07:26:38.599Z,99745.54
2019-04-05T07:29:09.603Z,99741.12
2019-04-05T07:31:39.049Z,99732.73
2019-04-05T07:34:08.596Z,99732.34
2019-04-05T07:36:38.036Z,99724.02
2019-04-05T07:39:08.125Z,99728.84
2019-04-05T07:41:37.794Z,99727.98
2019-04-05T07:44:07.256Z,99730.62
2019-04-05T07:46:36.734Z,99732.84
2019-04-05T07:49:06.320Z,99733.28
2019-04-05T07:51:35.753Z,99733.71
2019-04-05T07:54:05.357Z,99732.40
2019-04-05T07:56:34.814Z,99736.80
2019-04-05T07:59:04.424Z,99738.94
2019-04-05T08:01:33.918Z,99738.52
2019-04-05T08:04:03.540Z,99737.19
2019-04-05T08:06:35.579Z,99741.64
2019-04-05T08:09:11.390Z,99743.41
2019-04-05T08:11:43.651Z,99736.42
2019-04-05T08:14:14.131Z,99735.97
2019-04-05T08:16:43.633Z,99739.92
2019-04-05T08:19:13.348Z,99735.50
2019-04-05T08:21:42.781Z,99733.77
2019-04-05T08:24:12.237Z,99737.72
2019-04-05T08:26:41.716Z,99737.72
2019-04-05T08:29:11.276Z,99739.48
2019-04-05T08:31:40.935Z,99736.89
2019-04-05T08:34:10.398Z,99732.05
2019-04-05T08:36:39.910Z,99734.27
2019-04-05T08:39:09.389Z,99732.95
2019-04-05T08:41:38.851Z,99734.27
2019-04-05T08:44:08.555Z,99736.01
2019-04-05T08:46:38.058Z,99734.27
2019-04-05T08:49:11.092Z,99742.61
2019-04-05T08:51:39.922Z,99746.53
2019-04-05T08:54:09.352Z,99760.61
2019-04-05T08:56:38.889Z,99754.89
2019-04-05T08:59:08.359Z,99749.61
2019-04-05T09:01:37.807Z,99746.98
2019-04-05T09:04:07.324Z,99750.55
2019-04-05T09:06:36.773Z,99760.27
2019-04-05T09:09:07.590Z,99758.94
2019-04-05T09:11:37.110Z,99765.99
2019-04-05T09:14:06.584Z,99761.59
2019-04-05T09:16:36.133Z,99763.37
2019-04-05T09:19:05.703Z,99763.36
2019-04-05T09:21:40.238Z,99767.33
2019-04-05T09:24:08.135Z,99763.38
2019-04-05T09:26:37.656Z,99769.10
2019-04-05T09:29:09.279Z,99767.75
2019-04-05T09:31:38.715Z,99766.45
2019-04-05T09:34:08.185Z,99769.52
2019-04-05T09:36:37.676Z,99761.58
2019-04-05T09:39:14.967Z,99765.11
2019-04-05T09:41:41.395Z,99765.52
2019-04-05T09:44:10.954Z,99765.09
2019-04-05T09:46:46.861Z,99762.44
2019-04-05T09:49:11.825Z,99760.26
2019-04-05T09:51:41.416Z,99762.92
2019-04-05T09:54:10.987Z,99764.23
2019-04-05T09:56:40.888Z,99768.65
2019-04-05T09:59:10.312Z,99767.74
2019-04-05T10:01:39.819Z,99766.88
2019-04-05T10:04:10.277Z,99765.55
2019-04-05T10:06:39.771Z,99773.92
2019-04-05T10:09:09.465Z,99775.69
2019-04-05T10:11:38.937Z,99781.41
2019-04-05T10:14:08.584Z,99782.32
2019-04-05T10:16:38.186Z,99781.40
2019-04-05T10:19:07.809Z,99781.84
2019-04-05T10:21:39.688Z,99789.75
2019-04-05T10:24:09.100Z,99784.02
2019-04-05T10:26:38.562Z,99790.61
2019-04-05T10:29:08.044Z,99793.27
2019-04-05T10:31:37.667Z,99789.78
2019-04-05T10:34:07.150Z,99795.48
2019-04-05T10:36:36.624Z,99792.39
2019-04-05T10:39:09.328Z,99793.73
2019-04-05T10:41:39.028Z,99786.67
2019-04-05T10:44:10.224Z,99783.58
2019-04-05T10:46:39.817Z,99797.28
2019-04-05T10:49:09.518Z,99800.80
2019-04-05T10:51:39.083Z,99804.33
2019-04-05T10:54:09.568Z,99808.28
2019-04-05T10:56:39.305Z,99803.84
2019-04-05T10:59:09.186Z,99804.22
2019-04-05T11:01:38.754Z,99795.89
2019-04-05T11:04:08.241Z,99802.08
2019-04-05T11:06:37.717Z,99808.27
2019-04-05T11:09:07.956Z,99810.05
2019-04-05T11:11:37.625Z,99810.49
2019-04-05T11:14:13.640Z,99806.52
2019-04-05T11:16:38.514Z,99811.78
2019-04-05T11:19:07.958Z,99821.51
2019-04-05T11:21:37.434Z,99813.98
2019-04-05T11:24:06.867Z,99817.05
2019-04-05T11:26:36.482Z,99817.98
2019-04-05T11:29:07.861Z,99817.95
2019-04-05T11:31:37.492Z,99813.47
2019-04-05T11:34:06.943Z,99807.25
2019-04-05T11:36:36.851Z,99807.63
2019-04-05T11:39:08.839Z,99804.95
2019-04-05T11:42:08.168Z,99807.17
2019-04-05T11:51:59.726Z,99820.95
2019-04-05T11:54:26.963Z,99830.70
2019-04-05T11:56:58.875Z,99836.89
2019-04-05T11:59:44.966Z,99843.53
2019-04-05T12:02:50.117Z,99842.22
2019-04-05T12:08:20.144Z,99839.17
2019-04-05T12:10:56.418Z,99832.99
2019-04-05T12:13:39.943Z,99836.52
2019-04-05T12:16:19.594Z,99841.37
2019-04-05T12:18:59.033Z,99833.44
2019-04-05T12:21:28.255Z,99833.86
2019-04-05T12:24:04.557Z,99841.78
2019-04-05T12:26:42.521Z,99832.52
2019-04-05T12:29:13.093Z,99826.77
2019-04-05T12:31:46.035Z,99833.36
2019-04-05T12:34:15.864Z,99828.03
2019-04-05T12:36:48.380Z,99828.93
2019-04-05T12:39:19.772Z,99827.13
2019-04-05T12:41:49.353Z,99827.60
2019-04-05T12:44:24.756Z,99837.28
2019-04-05T12:46:53.440Z,99834.63
2019-04-05T12:49:23.370Z,99834.13
2019-04-05T12:52:05.268Z,99833.23
2019-04-05T12:54:56.106Z,99821.30
2019-04-05T12:58:00.686Z,99829.34
2019-04-05T13:00:34.668Z,99821.38
2019-04-05T13:03:04.624Z,99813.89
2019-04-05T13:05:42.299Z,99818.33
2019-04-05T13:09:12.336Z,99821.85
2019-04-05T13:11:54.483Z,99821.41
2019-04-05T13:42:50.194Z,99805.00
2019-04-05T13:43:33.159Z,99815.67
2019-04-05T13:45:19.940Z,99807.59
2019-04-05T13:47:49.635Z,99807.12
2019-04-05T13:50:19.640Z,99808.49
2019-04-05T13:52:49.509Z,99810.73
2019-04-05T13:55:19.307Z,99803.66
2019-04-05T13:57:49.680Z,99804.55
2019-04-05T14:00:20.553Z,99810.31
2019-04-05T14:02:51.356Z,99807.63
2019-04-05T14:05:22.270Z,99802.30
2019-04-05T14:07:54.666Z,99808.02
2019-04-05T14:10:23.732Z,99812.83
2019-04-05T14:12:53.429Z,99811.02
2019-04-05T14:15:25.448Z,99813.67
2019-04-05T14:17:55.370Z,99812.42
2019-04-05T14:20:26.180Z,99811.09
2019-04-05T14:22:56.788Z,99806.69
2019-04-05T14:25:30.136Z,99815.95
2019-04-05T14:27:59.629Z,99815.02
2019-04-05T14:30:32.444Z,99812.32
2019-04-05T14:33:01.522Z,99810.52
2019-04-05T14:35:31.997Z,99808.73
2019-04-05T14:38:02.347Z,99812.28
2019-04-05T14:40:35.100Z,99810.05
2019-04-05T14:43:05.438Z,99815.34
2019-04-05T14:45:35.019Z,99813.57
2019-04-05T14:48:05.626Z,99810.94
2019-04-05T14:50:36.694Z,99810.91
2019-04-05T14:53:07.218Z,99814.92
2019-04-05T14:55:39.575Z,99811.42
2019-04-05T14:58:10.629Z,99812.31
2019-04-05T15:00:41.195Z,99807.92
2019-04-05T15:03:10.962Z,99810.55
2019-04-05T15:05:41.363Z,99809.25
2019-04-05T15:08:11.338Z,99805.27
2019-04-05T15:10:41.321Z,99804.38
2019-04-05T15:13:11.002Z,99807.92
2019-04-05T15:15:41.033Z,99804.41
2019-04-05T15:18:10.937Z,99801.77
2019-04-05T15:20:40.564Z,99801.77
2019-04-05T15:23:13.903Z,99803.98
2019-04-05T15:25:42.020Z,99808.42
2019-04-05T15:28:11.548Z,99805.77
2019-04-05T15:30:42.391Z,99820.38
2019-04-05T15:33:12.415Z,99818.62
2019-04-05T15:35:43.968Z,99815.94
2019-04-05T15:38:13.791Z,99822.14
2019-04-05T15:40:44.797Z,99821.27
2019-04-05T15:43:15.201Z,99819.95
2019-04-05T15:45:45.965Z,99817.79
2019-04-05T15:48:16.495Z,99817.33
2019-04-05T15:50:46.525Z,99819.53
2019-04-05T15:53:17.810Z,99817.74
2019-04-05T15:55:48.471Z,99811.94
2019-04-05T15:58:18.473Z,99815.02
2019-04-05T16:00:48.804Z,99810.16
2019-04-05T16:03:19.130Z,99815.45
2019-04-05T16:05:49.641Z,99809.69
2019-04-05T16:08:19.495Z,99812.36
2019-04-05T16:10:49.237Z,99810.59
2019-04-05T16:13:19.145Z,99817.62
2019-04-05T16:15:48.904Z,99818.91
2019-04-05T16:18:18.657Z,99820.63
2019-04-05T16:20:48.426Z,99820.19
2019-04-05T16:23:18.300Z,99820.58
2019-04-05T16:25:48.765Z,99825.42
2019-04-05T16:28:19.198Z,99829.44
2019-04-05T16:30:49.537Z,99832.13
2019-04-05T16:33:19.451Z,99835.20
2019-04-05T16:35:49.185Z,99840.05
2019-04-05T16:38:20.073Z,99833.39
2019-04-05T16:40:49.788Z,99836.92
2019-04-05T16:43:19.565Z,99830.77
2019-04-05T16:45:49.481Z,99830.80
2019-04-05T16:48:19.151Z,99828.14
2019-04-05T16:50:49.001Z,99832.55
2019-04-05T16:53:19.557Z,99836.98
2019-04-05T16:55:49.639Z,99837.85
2019-04-05T16:58:19.595Z,99838.29
2019-04-05T17:00:49.594Z,99836.09
2019-04-05T17:03:19.065Z,99841.42
2019-04-05T17:05:48.731Z,99839.70
2019-04-05T17:08:18.243Z,99835.30
2019-04-05T17:10:47.874Z,99835.30
2019-04-05T17:13:18.051Z,99831.83
2019-04-05T17:15:47.797Z,99834.06
2019-04-05T17:18:17.281Z,99838.53
2019-04-05T17:20:46.716Z,99843.83
2019-04-05T17:23:16.747Z,99837.25
2019-04-05T17:25:46.429Z,99834.61
2019-04-05T17:28:16.421Z,99835.50
2019-04-05T17:30:45.861Z,99839.48
2019-04-05T17:33:15.664Z,99837.28
2019-04-05T17:35:46.109Z,99832.87
2019-04-05T17:38:15.841Z,99834.63
2019-04-05T17:40:45.321Z,99834.64
2019-04-05T17:43:15.031Z,99842.16
2019-04-05T17:45:44.642Z,99838.16
2019-04-05T17:48:14.207Z,99845.23
2019-04-05T17:50:44.150Z,99853.19
2019-04-05T17:53:14.676Z,99843.95
2019-04-05T17:55:44.784Z,99852.78
2019-04-05T17:58:16.568Z,99847.97
2019-04-05T18:00:46.360Z,99855.46
2019-04-05T18:03:15.917Z,99858.55
2019-04-05T18:05:45.551Z,99863.42
2019-04-05T18:08:15.218Z,99862.08
2019-04-05T18:10:44.846Z,99870.49
2019-04-05T18:13:14.281Z,99873.11
2019-04-05T18:15:52.233Z,99881.50
2019-04-05T18:18:15.282Z,99877.11
2019-04-05T18:20:44.831Z,99876.23
2019-04-05T18:23:24.160Z,99879.73
2019-04-05T18:25:45.664Z,99876.22
2019-04-05T18:28:15.244Z,99886.79
2019-04-05T18:30:44.915Z,99881.95
2019-04-05T18:33:14.423Z,99884.58
2019-04-05T18:35:44.283Z,99887.69
2019-04-05T18:38:13.879Z,99881.95
2019-04-05T18:40:43.626Z,99886.33
2019-04-05T18:43:13.106Z,99889.41
2019-04-05T18:45:42.784Z,99890.29
2019-04-05T18:48:12.265Z,99891.13
2019-04-05T18:50:41.819Z,99893.75
2019-04-05T18:53:11.625Z,99901.19
2019-04-05T18:55:41.657Z,99896.33
2019-04-05T18:58:11.622Z,99898.47
2019-04-05T19:00:41.114Z,99907.68
2019-04-05T19:03:10.977Z,99907.22
2019-04-05T19:05:40.759Z,99905.00
2019-04-05T19:08:11.497Z,99903.20
2019-04-05T19:10:42.016Z,99900.98
2019-04-05T19:13:12.770Z,99899.63
2019-04-05T19:15:43.721Z,99903.53
2019-04-05T19:18:13.346Z,99895.60
2019-04-05T19:20:42.864Z,99890.74
2019-04-05T19:23:13.283Z,99894.66
2019-04-05T19:25:43.007Z,99893.76
2019-04-05T19:28:12.789Z,99889.75
2019-04-05T19:50:53.717Z,99895.05
2019-04-05T19:53:23.226Z,99889.25
2019-04-05T19:55:53.032Z,99895.82
2019-04-05T19:58:23.037Z,99899.30
2019-04-05T20:00:52.780Z,99911.14
2019-04-05T20:03:22.668Z,99905.84
2019-04-05T20:05:52.262Z,99898.36
2019-04-05T20:08:22.034Z,99897.03
2019-04-05T20:10:53.541Z,99899.25
2019-04-05T20:13:23.179Z,99902.25
2019-04-05T20:15:52.623Z,99897.87
2019-04-05T20:18:22.387Z,99901.81
2019-04-05T20:20:51.860Z,99899.59
2019-04-05T20:23:23.093Z,99901.33
2019-04-05T20:25:52.768Z,99901.30
2019-04-05T20:28:22.320Z,99904.33
2019-04-05T20:30:52.283Z,99914.38
2019-04-05T20:33:22.133Z,99903.77
2019-04-05T20:35:51.802Z,99913.83
2019-04-05T20:38:22.186Z,99916.86
2019-04-05T20:40:51.900Z,99918.63
2019-04-05T20:43:21.400Z,99920.77
2019-04-05T20:45:52.640Z,99922.45
2019-04-05T20:48:42.215Z,99924.63
2019-04-05T20:51:22.356Z,99925.07
2019-04-05T20:53:54.888Z,99921.06
2019-04-05T20:56:26.651Z,99924.56
2019-04-05T20:58:57.681Z,99925.81
2019-04-05T21:01:27.105Z,99920.95
2019-04-05T21:03:56.855Z,99919.19
2019-04-05T21:06:26.297Z,99921.81
2019-04-05T21:08:55.822Z,99922.66
2019-04-05T21:11:27.172Z,99929.66
2019-04-05T21:13:56.434Z,99934.02
2019-04-05T21:16:26.734Z,99929.20
2019-04-05T21:18:56.545Z,99923.04
2019-04-05T21:21:27.484Z,99933.14
2019-04-05T21:23:57.042Z,99932.66
2019-04-05T21:26:26.625Z,99922.11
2019-04-05T21:28:56.084Z,99920.31
2019-04-05T21:31:25.587Z,99927.31
2019-04-05T21:33:55.128Z,99919.80
2019-04-05T21:36:24.630Z,99919.35
2019-04-05T21:38:54.343Z,99921.92
2019-04-05T21:41:23.819Z,99916.19
2019-04-05T21:43:53.419Z,99913.04
2019-04-05T21:46:22.865Z,99911.22
2019-04-05T21:48:52.430Z,99908.56
2019-04-05T21:51:24.633Z,99911.14
2019-04-05T21:53:53.907Z,99914.22
2019-04-05T21:56:23.460Z,99913.74
2019-04-05T21:58:53.280Z,99910.67
2019-04-05T22:01:23.351Z,99902.31
2019-04-05T22:03:54.558Z,99896.61
2019-04-05T22:06:23.998Z,99906.25
2019-04-05T22:08:54.016Z,99911.97
2019-04-05T22:11:23.575Z,99914.12
2019-04-05T22:13:53.122Z,99908.82
2019-04-05T22:16:22.665Z,99914.89
2019-04-05T22:18:52.494Z,99920.98
2019-04-05T22:21:22.288Z,99924.00
2019-04-05T22:23:51.913Z,99927.03
2019-04-05T22:26:21.338Z,99926.13
2019-04-05T22:28:50.780Z,99928.30
2019-04-05T22:31:20.345Z,99930.45
2019-04-05T22:33:50.075Z,99934.80
2019-04-05T22:36:19.507Z,99940.52
2019-04-05T22:42:11.886Z,99934.34
2019-04-05T22:44:41.706Z,99944.88
2019-04-05T22:47:12.363Z,99937.82
2019-04-05T22:49:41.972Z,99936.91
2019-04-05T22:52:11.480Z,99939.09
2019-04-05T22:54:40.968Z,99938.19
2019-04-05T22:57:10.511Z,99929.84
2019-04-05T22:59:39.952Z,99934.20
2019-04-05T23:02:09.435Z,99946.46
2019-04-05T23:04:38.885Z,99936.81
2019-04-05T23:07:08.321Z,99938.06
2019-04-05T23:09:37.862Z,99940.69
2019-04-05T23:12:07.301Z,99943.72
2019-04-05T23:14:36.755Z,99940.67
2019-04-05T23:17:06.228Z,99937.12
2019-04-05T23:19:35.733Z,99934.50
2019-04-05T23:22:05.353Z,99936.70
2019-04-05T23:24:34.818Z,99935.37
2019-04-05T23:27:04.268Z,99945.41
2019-04-05T23:29:33.823Z,99951.55
2019-04-05T23:32:03.267Z,99949.34
2019-04-05T23:34:32.741Z,99954.58
2019-04-05T23:37:02.211Z,99948.88
2019-04-05T23:39:32.905Z,99956.77
2019-04-05T23:42:02.705Z,99957.20
2019-04-05T23:44:32.201Z,99962.47
2019-04-05T23:47:01.681Z,99967.73
2019-04-05T23:49:31.164Z,99966.83
2019-04-05T23:52:00.602Z,99959.42
2019-04-05T23:54:32.315Z,99966.41
2019-04-05T23:57:01.826Z,99964.66
2019-04-05T23:59:31.736Z,99963.77
